sensor_id;sensor_type;location;lat;lon;timestamp;temperature;humidity
70271;SHT31;57680;54.292;18.598;2022-12-18T00:01:17;-4.24;94.20
70271;SHT31;57680;54.292;18.598;2022-12-18T00:03:44;-4.28;94.70
70271;SHT31;57680;54.292;18.598;2022-12-18T00:06:10;-4.34;94.78
70271;SHT31;57680;54.292;18.598;2022-12-18T00:08:35;-4.42;94.60
70271;SHT31;57680;54.292;18.598;2022-12-18T00:11:05;-4.36;94.37
70271;SHT31;57680;54.292;18.598;2022-12-18T00:13:31;-4.36;94.68
70271;SHT31;57680;54.292;18.598;2022-12-18T00:16:05;-4.36;94.37
70271;SHT31;57680;54.292;18.598;2022-12-18T00:18:31;-4.45;94.41
70271;SHT31;57680;54.292;18.598;2022-12-18T00:21:01;-4.52;94.78
70271;SHT31;57680;54.292;18.598;2022-12-18T00:23:27;-4.51;94.32
70271;SHT31;57680;54.292;18.598;2022-12-18T00:25:53;-4.55;94.33
70271;SHT31;57680;54.292;18.598;2022-12-18T00:28:18;-4.69;94.32
70271;SHT31;57680;54.292;18.598;2022-12-18T00:30:44;-4.79;95.06
70271;SHT31;57680;54.292;18.598;2022-12-18T00:33:09;-4.85;95.37
70271;SHT31;57680;54.292;18.598;2022-12-18T00:35:35;-4.89;95.14
70271;SHT31;57680;54.292;18.598;2022-12-18T00:38:00;-4.92;94.98
70271;SHT31;57680;54.292;18.598;2022-12-18T00:40:26;-5.03;95.18
70271;SHT31;57680;54.292;18.598;2022-12-18T00:42:51;-5.03;95.71
70271;SHT31;57680;54.292;18.598;2022-12-18T00:45:28;-5.03;95.35
70271;SHT31;57680;54.292;18.598;2022-12-18T00:47:56;-5.07;95.87
70271;SHT31;57680;54.292;18.598;2022-12-18T00:50:23;-4.95;96.12
70271;SHT31;57680;54.292;18.598;2022-12-18T00:52:49;-4.86;96.27
70271;SHT31;57680;54.292;18.598;2022-12-18T00:55:14;-4.73;96.26
70271;SHT31;57680;54.292;18.598;2022-12-18T00:57:40;-4.83;95.91
70271;SHT31;57680;54.292;18.598;2022-12-18T01:00:08;-4.83;95.97
70271;SHT31;57680;54.292;18.598;2022-12-18T01:02:34;-4.89;95.68
70271;SHT31;57680;54.292;18.598;2022-12-18T01:04:59;-4.93;95.70
70271;SHT31;57680;54.292;18.598;2022-12-18T01:07:24;-4.89;95.80
70271;SHT31;57680;54.292;18.598;2022-12-18T01:09:50;-4.95;95.96
70271;SHT31;57680;54.292;18.598;2022-12-18T01:12:15;-4.93;96.04
70271;SHT31;57680;54.292;18.598;2022-12-18T01:14:41;-4.92;95.91
70271;SHT31;57680;54.292;18.598;2022-12-18T01:17:06;-4.93;96.11
70271;SHT31;57680;54.292;18.598;2022-12-18T01:19:32;-4.87;96.20
70271;SHT31;57680;54.292;18.598;2022-12-18T01:21:58;-4.92;95.76
70271;SHT31;57680;54.292;18.598;2022-12-18T01:24:23;-4.93;96.07
70271;SHT31;57680;54.292;18.598;2022-12-18T01:26:49;-4.86;95.76
70271;SHT31;57680;54.292;18.598;2022-12-18T01:29:14;-4.92;95.78
70271;SHT31;57680;54.292;18.598;2022-12-18T01:31:40;-4.99;95.74
70271;SHT31;57680;54.292;18.598;2022-12-18T01:34:05;-4.96;96.10
70271;SHT31;57680;54.292;18.598;2022-12-18T01:36:34;-4.96;96.70
70271;SHT31;57680;54.292;18.598;2022-12-18T01:39:01;-4.93;97.06
70271;SHT31;57680;54.292;18.598;2022-12-18T01:41:29;-4.86;96.97
70271;SHT31;57680;54.292;18.598;2022-12-18T01:44:56;-4.86;96.47
70271;SHT31;57680;54.292;18.598;2022-12-18T01:50:43;-4.73;96.40
70271;SHT31;57680;54.292;18.598;2022-12-18T01:53:22;-4.66;96.88
70271;SHT31;57680;54.292;18.598;2022-12-18T01:55:52;-4.58;97.43
70271;SHT31;57680;54.292;18.598;2022-12-18T01:58:20;-4.54;95.97
70271;SHT31;57680;54.292;18.598;2022-12-18T02:00:48;-4.66;95.43
70271;SHT31;57680;54.292;18.598;2022-12-18T02:03:14;-4.55;97.26
70271;SHT31;57680;54.292;18.598;2022-12-18T02:06:04;-4.25;97.92
70271;SHT31;57680;54.292;18.598;2022-12-18T02:14:31;-3.51;96.33
70271;SHT31;57680;54.292;18.598;2022-12-18T02:17:11;-3.46;95.49
70271;SHT31;57680;54.292;18.598;2022-12-18T02:22:44;-3.24;95.16
70271;SHT31;57680;54.292;18.598;2022-12-18T02:28:09;-3.19;94.26
70271;SHT31;57680;54.292;18.598;2022-12-18T02:30:36;-3.08;94.02
70271;SHT31;57680;54.292;18.598;2022-12-18T02:33:05;-3.00;93.45
70271;SHT31;57680;54.292;18.598;2022-12-18T02:35:33;-2.97;93.70
70271;SHT31;57680;54.292;18.598;2022-12-18T02:38:00;-2.80;93.16
70271;SHT31;57680;54.292;18.598;2022-12-18T02:40:27;-2.66;92.34
70271;SHT31;57680;54.292;18.598;2022-12-18T02:42:54;-2.69;92.06
70271;SHT31;57680;54.292;18.598;2022-12-18T02:45:19;-2.80;91.61
70271;SHT31;57680;54.292;18.598;2022-12-18T02:47:48;-2.73;92.18
70271;SHT31;57680;54.292;18.598;2022-12-18T02:53:15;-2.74;91.31
70271;SHT31;57680;54.292;18.598;2022-12-18T02:59:00;-2.63;90.88
70271;SHT31;57680;54.292;18.598;2022-12-18T03:01:50;-2.63;90.31
70271;SHT31;57680;54.292;18.598;2022-12-18T03:04:23;-2.66;90.72
70271;SHT31;57680;54.292;18.598;2022-12-18T03:06:55;-2.62;89.94
70271;SHT31;57680;54.292;18.598;2022-12-18T03:09:27;-2.66;89.34
70271;SHT31;57680;54.292;18.598;2022-12-18T03:12:02;-2.69;89.85
70271;SHT31;57680;54.292;18.598;2022-12-18T03:15:10;-2.66;89.34
70271;SHT31;57680;54.292;18.598;2022-12-18T03:17:42;-2.72;89.09
70271;SHT31;57680;54.292;18.598;2022-12-18T03:20:13;-2.72;89.04
70271;SHT31;57680;54.292;18.598;2022-12-18T03:22:41;-2.74;89.33
70271;SHT31;57680;54.292;18.598;2022-12-18T03:25:12;-2.72;89.00
70271;SHT31;57680;54.292;18.598;2022-12-18T03:27:42;-2.76;89.35
70271;SHT31;57680;54.292;18.598;2022-12-18T03:30:10;-2.69;88.92
70271;SHT31;57680;54.292;18.598;2022-12-18T03:32:50;-2.63;88.59
70271;SHT31;57680;54.292;18.598;2022-12-18T03:35:21;-2.54;88.83
70271;SHT31;57680;54.292;18.598;2022-12-18T03:37:48;-2.53;88.77
70271;SHT31;57680;54.292;18.598;2022-12-18T03:40:13;-2.57;88.58
70271;SHT31;57680;54.292;18.598;2022-12-18T03:42:49;-2.49;88.47
70271;SHT31;57680;54.292;18.598;2022-12-18T03:50:57;-2.52;87.27
70271;SHT31;57680;54.292;18.598;2022-12-18T03:56:09;-2.74;86.96
70271;SHT31;57680;54.292;18.598;2022-12-18T03:58:36;-2.81;87.11
70271;SHT31;57680;54.292;18.598;2022-12-18T04:01:38;-2.74;87.75
70271;SHT31;57680;54.292;18.598;2022-12-18T04:04:41;-2.67;87.27
70271;SHT31;57680;54.292;18.598;2022-12-18T04:07:08;-2.63;86.62
70271;SHT31;57680;54.292;18.598;2022-12-18T04:09:34;-2.63;86.89
70271;SHT31;57680;54.292;18.598;2022-12-18T04:12:01;-2.62;86.97
70271;SHT31;57680;54.292;18.598;2022-12-18T04:14:26;-2.72;86.97
70271;SHT31;57680;54.292;18.598;2022-12-18T04:16:52;-2.76;87.24
70271;SHT31;57680;54.292;18.598;2022-12-18T04:19:17;-2.81;87.37
70271;SHT31;57680;54.292;18.598;2022-12-18T04:21:42;-2.80;87.11
70271;SHT31;57680;54.292;18.598;2022-12-18T04:24:08;-2.83;86.88
70271;SHT31;57680;54.292;18.598;2022-12-18T04:26:34;-2.87;87.15
70271;SHT31;57680;54.292;18.598;2022-12-18T04:29:20;-2.84;87.35
70271;SHT31;57680;54.292;18.598;2022-12-18T04:31:46;-2.98;87.36
70271;SHT31;57680;54.292;18.598;2022-12-18T04:34:11;-3.04;86.95
70271;SHT31;57680;54.292;18.598;2022-12-18T04:36:37;-3.16;87.39
70271;SHT31;57680;54.292;18.598;2022-12-18T04:39:02;-3.30;87.91
70271;SHT31;57680;54.292;18.598;2022-12-18T04:41:28;-3.32;88.36
70271;SHT31;57680;54.292;18.598;2022-12-18T04:43:54;-3.32;88.43
70271;SHT31;57680;54.292;18.598;2022-12-18T04:46:19;-3.31;89.03
70271;SHT31;57680;54.292;18.598;2022-12-18T04:48:45;-3.28;88.56
70271;SHT31;57680;54.292;18.598;2022-12-18T04:51:12;-3.35;88.24
70271;SHT31;57680;54.292;18.598;2022-12-18T04:53:37;-3.36;88.42
70271;SHT31;57680;54.292;18.598;2022-12-18T04:56:14;-3.35;88.49
70271;SHT31;57680;54.292;18.598;2022-12-18T04:58:41;-3.42;88.38
70271;SHT31;57680;54.292;18.598;2022-12-18T05:01:07;-3.32;88.09
70271;SHT31;57680;54.292;18.598;2022-12-18T05:03:33;-3.31;87.91
70271;SHT31;57680;54.292;18.598;2022-12-18T05:05:59;-3.35;88.09
70271;SHT31;57680;54.292;18.598;2022-12-18T05:08:25;-3.39;87.86
70271;SHT31;57680;54.292;18.598;2022-12-18T05:11:04;-3.31;87.74
70271;SHT31;57680;54.292;18.598;2022-12-18T05:13:31;-3.24;87.94
70271;SHT31;57680;54.292;18.598;2022-12-18T05:15:56;-3.27;87.62
70271;SHT31;57680;54.292;18.598;2022-12-18T05:18:25;-3.38;88.10
70271;SHT31;57680;54.292;18.598;2022-12-18T05:20:51;-3.43;88.09
70271;SHT31;57680;54.292;18.598;2022-12-18T05:23:18;-3.41;88.11
70271;SHT31;57680;54.292;18.598;2022-12-18T05:25:54;-3.31;87.85
70271;SHT31;57680;54.292;18.598;2022-12-18T05:28:20;-3.22;87.45
70271;SHT31;57680;54.292;18.598;2022-12-18T05:30:50;-3.25;87.40
70271;SHT31;57680;54.292;18.598;2022-12-18T05:33:17;-3.28;87.84
70271;SHT31;57680;54.292;18.598;2022-12-18T05:35:42;-3.30;87.65
70271;SHT31;57680;54.292;18.598;2022-12-18T05:38:08;-3.28;88.23
70271;SHT31;57680;54.292;18.598;2022-12-18T05:40:43;-3.25;87.20
70271;SHT31;57680;54.292;18.598;2022-12-18T05:43:40;-3.18;87.03
70271;SHT31;57680;54.292;18.598;2022-12-18T05:46:08;-3.18;87.90
70271;SHT31;57680;54.292;18.598;2022-12-18T05:48:49;-3.12;87.57
70271;SHT31;57680;54.292;18.598;2022-12-18T05:51:17;-3.07;87.75
70271;SHT31;57680;54.292;18.598;2022-12-18T05:53:43;-3.05;87.13
70271;SHT31;57680;54.292;18.598;2022-12-18T05:56:31;-3.08;86.78
70271;SHT31;57680;54.292;18.598;2022-12-18T05:58:57;-3.09;86.96
70271;SHT31;57680;54.292;18.598;2022-12-18T06:01:25;-3.18;86.83
70271;SHT31;57680;54.292;18.598;2022-12-18T06:03:51;-3.21;87.13
70271;SHT31;57680;54.292;18.598;2022-12-18T06:06:19;-3.16;86.82
70271;SHT31;57680;54.292;18.598;2022-12-18T06:08:46;-3.12;86.67
70271;SHT31;57680;54.292;18.598;2022-12-18T06:11:11;-3.09;86.09
70271;SHT31;57680;54.292;18.598;2022-12-18T06:13:38;-3.11;85.68
70271;SHT31;57680;54.292;18.598;2022-12-18T06:16:04;-3.25;86.27
70271;SHT31;57680;54.292;18.598;2022-12-18T06:18:31;-3.24;87.50
70271;SHT31;57680;54.292;18.598;2022-12-18T06:20:57;-3.21;87.15
70271;SHT31;57680;54.292;18.598;2022-12-18T06:23:22;-3.21;86.94
70271;SHT31;57680;54.292;18.598;2022-12-18T06:25:48;-3.18;87.30
70271;SHT31;57680;54.292;18.598;2022-12-18T06:28:14;-3.24;86.59
70271;SHT31;57680;54.292;18.598;2022-12-18T06:30:39;-3.27;86.60
70271;SHT31;57680;54.292;18.598;2022-12-18T06:33:05;-3.35;86.54
70271;SHT31;57680;54.292;18.598;2022-12-18T06:35:32;-3.36;86.31
70271;SHT31;57680;54.292;18.598;2022-12-18T06:37:57;-3.53;86.68
70271;SHT31;57680;54.292;18.598;2022-12-18T06:40:22;-3.42;87.02
70271;SHT31;57680;54.292;18.598;2022-12-18T06:46:20;-3.39;85.86
70271;SHT31;57680;54.292;18.598;2022-12-18T06:48:49;-3.49;86.71
70271;SHT31;57680;54.292;18.598;2022-12-18T06:51:17;-3.45;87.11
70271;SHT31;57680;54.292;18.598;2022-12-18T06:53:43;-3.36;86.66
70271;SHT31;57680;54.292;18.598;2022-12-18T06:56:09;-3.34;86.32
70271;SHT31;57680;54.292;18.598;2022-12-18T06:58:34;-3.25;85.95
70271;SHT31;57680;54.292;18.598;2022-12-18T07:01:01;-3.35;86.61
70271;SHT31;57680;54.292;18.598;2022-12-18T07:03:27;-3.39;86.67
70271;SHT31;57680;54.292;18.598;2022-12-18T07:05:52;-3.43;86.63
70271;SHT31;57680;54.292;18.598;2022-12-18T07:08:18;-3.52;86.73
70271;SHT31;57680;54.292;18.598;2022-12-18T07:11:03;-3.56;86.70
70271;SHT31;57680;54.292;18.598;2022-12-18T07:13:28;-3.60;87.00
70271;SHT31;57680;54.292;18.598;2022-12-18T07:15:54;-3.67;86.87
70271;SHT31;57680;54.292;18.598;2022-12-18T07:18:19;-3.74;87.37
70271;SHT31;57680;54.292;18.598;2022-12-18T07:20:47;-3.79;87.58
70271;SHT31;57680;54.292;18.598;2022-12-18T07:23:13;-3.79;87.74
70271;SHT31;57680;54.292;18.598;2022-12-18T07:25:39;-3.77;87.77
70271;SHT31;57680;54.292;18.598;2022-12-18T07:28:08;-3.70;87.62
70271;SHT31;57680;54.292;18.598;2022-12-18T07:30:37;-3.72;87.26
70271;SHT31;57680;54.292;18.598;2022-12-18T07:33:02;-3.70;87.61
70271;SHT31;57680;54.292;18.598;2022-12-18T07:35:28;-3.66;87.62
70271;SHT31;57680;54.292;18.598;2022-12-18T07:37:53;-3.59;88.27
70271;SHT31;57680;54.292;18.598;2022-12-18T07:40:19;-3.49;87.29
70271;SHT31;57680;54.292;18.598;2022-12-18T07:43:00;-3.48;87.05
70271;SHT31;57680;54.292;18.598;2022-12-18T07:48:00;-3.39;86.74
70271;SHT31;57680;54.292;18.598;2022-12-18T07:50:26;-3.32;86.68
70271;SHT31;57680;54.292;18.598;2022-12-18T07:52:51;-3.21;86.35
70271;SHT31;57680;54.292;18.598;2022-12-18T07:55:17;-3.14;86.27
70271;SHT31;57680;54.292;18.598;2022-12-18T07:57:43;-3.04;86.29
70271;SHT31;57680;54.292;18.598;2022-12-18T08:00:10;-2.91;85.88
70271;SHT31;57680;54.292;18.598;2022-12-18T08:02:36;-2.81;85.24
70271;SHT31;57680;54.292;18.598;2022-12-18T08:05:03;-2.73;84.87
70271;SHT31;57680;54.292;18.598;2022-12-18T08:07:28;-2.72;85.01
70271;SHT31;57680;54.292;18.598;2022-12-18T08:09:54;-2.64;84.59
70271;SHT31;57680;54.292;18.598;2022-12-18T08:12:19;-2.57;84.32
70271;SHT31;57680;54.292;18.598;2022-12-18T08:14:45;-2.50;83.84
70271;SHT31;57680;54.292;18.598;2022-12-18T08:17:10;-2.42;83.69
70271;SHT31;57680;54.292;18.598;2022-12-18T08:19:36;-2.35;82.94
70271;SHT31;57680;54.292;18.598;2022-12-18T08:22:01;-2.28;82.80
70271;SHT31;57680;54.292;18.598;2022-12-18T08:24:26;-2.19;82.34
70271;SHT31;57680;54.292;18.598;2022-12-18T08:26:52;-2.19;81.96
70271;SHT31;57680;54.292;18.598;2022-12-18T08:29:17;-2.13;81.59
70271;SHT31;57680;54.292;18.598;2022-12-18T08:31:43;-2.08;81.31
70271;SHT31;57680;54.292;18.598;2022-12-18T08:34:09;-1.99;81.07
70271;SHT31;57680;54.292;18.598;2022-12-18T08:36:34;-1.92;80.74
70271;SHT31;57680;54.292;18.598;2022-12-18T08:39:00;-1.87;80.25
70271;SHT31;57680;54.292;18.598;2022-12-18T08:41:25;-1.80;79.91
70271;SHT31;57680;54.292;18.598;2022-12-18T08:43:51;-1.75;79.51
70271;SHT31;57680;54.292;18.598;2022-12-18T08:46:37;-1.73;79.47
70271;SHT31;57680;54.292;18.598;2022-12-18T08:49:05;-1.68;78.77
70271;SHT31;57680;54.292;18.598;2022-12-18T08:51:31;-1.63;78.77
70271;SHT31;57680;54.292;18.598;2022-12-18T08:53:56;-1.56;78.08
70271;SHT31;57680;54.292;18.598;2022-12-18T08:56:22;-1.47;78.13
70271;SHT31;57680;54.292;18.598;2022-12-18T08:58:47;-1.46;77.37
70271;SHT31;57680;54.292;18.598;2022-12-18T09:01:15;-1.40;77.30
70271;SHT31;57680;54.292;18.598;2022-12-18T09:03:41;-1.29;76.57
70271;SHT31;57680;54.292;18.598;2022-12-18T09:06:07;-1.30;76.31
70271;SHT31;57680;54.292;18.598;2022-12-18T09:08:33;-1.26;75.59
70271;SHT31;57680;54.292;18.598;2022-12-18T09:10:59;-1.23;74.99
70271;SHT31;57680;54.292;18.598;2022-12-18T09:13:24;-1.20;74.61
70271;SHT31;57680;54.292;18.598;2022-12-18T09:15:52;-1.12;74.95
70271;SHT31;57680;54.292;18.598;2022-12-18T09:18:19;-1.11;74.89
70271;SHT31;57680;54.292;18.598;2022-12-18T09:20:46;-1.02;74.91
70271;SHT31;57680;54.292;18.598;2022-12-18T09:23:11;-0.96;74.75
70271;SHT31;57680;54.292;18.598;2022-12-18T09:25:37;-0.93;73.99
70271;SHT31;57680;54.292;18.598;2022-12-18T09:28:05;-0.92;72.85
70271;SHT31;57680;54.292;18.598;2022-12-18T09:30:31;-0.91;72.20
70271;SHT31;57680;54.292;18.598;2022-12-18T09:32:58;-0.80;72.10
70271;SHT31;57680;54.292;18.598;2022-12-18T09:35:24;-0.77;71.85
70271;SHT31;57680;54.292;18.598;2022-12-18T09:37:50;-0.70;72.09
70271;SHT31;57680;54.292;18.598;2022-12-18T09:40:21;-0.65;71.86
70271;SHT31;57680;54.292;18.598;2022-12-18T09:42:51;-0.64;71.48
70271;SHT31;57680;54.292;18.598;2022-12-18T09:45:19;-0.54;71.06
70271;SHT31;57680;54.292;18.598;2022-12-18T09:47:46;-0.56;70.61
70271;SHT31;57680;54.292;18.598;2022-12-18T09:50:33;-0.51;70.37
70271;SHT31;57680;54.292;18.598;2022-12-18T09:53:04;-0.47;70.36
70271;SHT31;57680;54.292;18.598;2022-12-18T09:55:37;-0.44;70.32
70271;SHT31;57680;54.292;18.598;2022-12-18T09:58:28;-0.40;69.98
70271;SHT31;57680;54.292;18.598;2022-12-18T10:00:56;-0.34;69.82
70271;SHT31;57680;54.292;18.598;2022-12-18T10:03:21;-0.29;70.17
70271;SHT31;57680;54.292;18.598;2022-12-18T10:08:52;-0.20;69.40
70271;SHT31;57680;54.292;18.598;2022-12-18T10:11:34;-0.13;69.07
70271;SHT31;57680;54.292;18.598;2022-12-18T10:14:23;-0.03;68.84
70271;SHT31;57680;54.292;18.598;2022-12-18T10:19:54;0.08;68.64
70271;SHT31;57680;54.292;18.598;2022-12-18T10:27:46;0.25;67.48
70271;SHT31;57680;54.292;18.598;2022-12-18T10:30:16;0.19;67.01
70271;SHT31;57680;54.292;18.598;2022-12-18T10:35:24;0.11;66.14
70271;SHT31;57680;54.292;18.598;2022-12-18T10:38:21;0.05;66.10
70271;SHT31;57680;54.292;18.598;2022-12-18T10:40:56;0.02;66.07
70271;SHT31;57680;54.292;18.598;2022-12-18T10:43:44;0.01;66.51
70271;SHT31;57680;54.292;18.598;2022-12-18T10:51:29;0.11;67.01
70271;SHT31;57680;54.292;18.598;2022-12-18T10:54:14;0.12;66.71
70271;SHT31;57680;54.292;18.598;2022-12-18T10:56:41;0.15;66.62
70271;SHT31;57680;54.292;18.598;2022-12-18T10:59:09;0.10;66.22
70271;SHT31;57680;54.292;18.598;2022-12-18T11:04:28;0.19;65.98
70271;SHT31;57680;54.292;18.598;2022-12-18T11:07:08;0.26;66.46
70271;SHT31;57680;54.292;18.598;2022-12-18T11:09:36;0.25;66.40
70271;SHT31;57680;54.292;18.598;2022-12-18T11:12:17;0.32;66.06
70271;SHT31;57680;54.292;18.598;2022-12-18T11:14:48;0.29;66.22
70271;SHT31;57680;54.292;18.598;2022-12-18T11:17:30;0.26;66.02
70271;SHT31;57680;54.292;18.598;2022-12-18T11:20:01;0.29;66.28
70271;SHT31;57680;54.292;18.598;2022-12-18T11:22:33;0.33;66.53
70271;SHT31;57680;54.292;18.598;2022-12-18T11:27:37;0.32;66.04
70271;SHT31;57680;54.292;18.598;2022-12-18T11:30:30;0.29;65.65
70271;SHT31;57680;54.292;18.598;2022-12-18T11:33:10;0.33;66.17
70271;SHT31;57680;54.292;18.598;2022-12-18T11:35:45;0.33;66.01
70271;SHT31;57680;54.292;18.598;2022-12-18T11:38:35;0.26;65.72
70271;SHT31;57680;54.292;18.598;2022-12-18T11:41:14;0.26;66.15
70271;SHT31;57680;54.292;18.598;2022-12-18T11:44:02;0.19;65.70
70271;SHT31;57680;54.292;18.598;2022-12-18T11:46:35;0.15;65.91
70271;SHT31;57680;54.292;18.598;2022-12-18T11:49:55;0.19;66.53
70271;SHT31;57680;54.292;18.598;2022-12-18T11:52:08;0.19;66.53
70271;SHT31;57680;54.292;18.598;2022-12-18T11:54:35;0.12;66.32
70271;SHT31;57680;54.292;18.598;2022-12-18T11:59:55;0.14;65.97
70271;SHT31;57680;54.292;18.598;2022-12-18T12:10:57;0.05;67.33
70271;SHT31;57680;54.292;18.598;2022-12-18T12:13:38;0.05;67.78
70271;SHT31;57680;54.292;18.598;2022-12-18T12:37:37;-0.13;67.64
70271;SHT31;57680;54.292;18.598;2022-12-18T12:40:05;-0.17;67.92
70271;SHT31;57680;54.292;18.598;2022-12-18T12:43:04;-0.23;68.14
70271;SHT31;57680;54.292;18.598;2022-12-18T12:48:40;-0.40;68.53
70271;SHT31;57680;54.292;18.598;2022-12-18T12:51:19;-0.47;68.71
70271;SHT31;57680;54.292;18.598;2022-12-18T12:53:46;-0.57;69.42
70271;SHT31;57680;54.292;18.598;2022-12-18T12:56:15;-0.61;69.88
70271;SHT31;57680;54.292;18.598;2022-12-18T12:58:51;-0.70;70.62
70271;SHT31;57680;54.292;18.598;2022-12-18T13:09:21;-0.93;72.73
70271;SHT31;57680;54.292;18.598;2022-12-18T13:11:47;-0.99;73.00
70271;SHT31;57680;54.292;18.598;2022-12-18T13:19:51;-1.23;74.16
70271;SHT31;57680;54.292;18.598;2022-12-18T13:22:22;-1.38;74.78
70271;SHT31;57680;54.292;18.598;2022-12-18T13:24:48;-1.43;75.06
70271;SHT31;57680;54.292;18.598;2022-12-18T13:28:00;-1.49;75.50
70271;SHT31;57680;54.292;18.598;2022-12-18T13:36:04;-1.71;76.13
70271;SHT31;57680;54.292;18.598;2022-12-18T13:38:35;-1.81;76.58
70271;SHT31;57680;54.292;18.598;2022-12-18T13:43:40;-2.11;77.44
70271;SHT31;57680;54.292;18.598;2022-12-18T13:46:18;-2.25;78.01
70271;SHT31;57680;54.292;18.598;2022-12-18T13:51:26;-2.48;78.74
70271;SHT31;57680;54.292;18.598;2022-12-18T13:56:55;-2.66;79.59
70271;SHT31;57680;54.292;18.598;2022-12-18T13:59:35;-2.74;79.75
70271;SHT31;57680;54.292;18.598;2022-12-18T14:02:14;-2.88;79.96
70271;SHT31;57680;54.292;18.598;2022-12-18T14:04:40;-2.97;80.38
70271;SHT31;57680;54.292;18.598;2022-12-18T14:07:09;-3.05;80.63
70271;SHT31;57680;54.292;18.598;2022-12-18T14:09:39;-3.15;80.95
70271;SHT31;57680;54.292;18.598;2022-12-18T14:12:05;-3.22;81.33
70271;SHT31;57680;54.292;18.598;2022-12-18T14:14:51;-3.28;81.76
70271;SHT31;57680;54.292;18.598;2022-12-18T14:17:18;-3.32;81.89
70271;SHT31;57680;54.292;18.598;2022-12-18T14:19:47;-3.30;82.00
70271;SHT31;57680;54.292;18.598;2022-12-18T14:22:19;-3.32;82.03
70271;SHT31;57680;54.292;18.598;2022-12-18T14:24:46;-3.34;82.24
70271;SHT31;57680;54.292;18.598;2022-12-18T14:27:23;-3.39;82.59
70271;SHT31;57680;54.292;18.598;2022-12-18T14:29:49;-3.51;82.84
70271;SHT31;57680;54.292;18.598;2022-12-18T14:32:17;-3.52;82.91
70271;SHT31;57680;54.292;18.598;2022-12-18T14:34:51;-3.62;83.07
70271;SHT31;57680;54.292;18.598;2022-12-18T14:37:24;-3.70;83.18
70271;SHT31;57680;54.292;18.598;2022-12-18T14:40:12;-3.83;83.27
70271;SHT31;57680;54.292;18.598;2022-12-18T14:42:38;-3.93;83.39
70271;SHT31;57680;54.292;18.598;2022-12-18T14:45:38;-4.04;83.70
70271;SHT31;57680;54.292;18.598;2022-12-18T14:48:15;-4.08;84.09
70271;SHT31;57680;54.292;18.598;2022-12-18T14:50:41;-4.17;84.15
70271;SHT31;57680;54.292;18.598;2022-12-18T14:53:23;-4.27;84.10
70271;SHT31;57680;54.292;18.598;2022-12-18T14:55:49;-4.44;84.32
70271;SHT31;57680;54.292;18.598;2022-12-18T14:58:16;-4.54;84.73
70271;SHT31;57680;54.292;18.598;2022-12-18T15:00:42;-4.69;85.11
70271;SHT31;57680;54.292;18.598;2022-12-18T15:03:09;-4.80;85.42
70271;SHT31;57680;54.292;18.598;2022-12-18T15:05:35;-4.89;85.79
70271;SHT31;57680;54.292;18.598;2022-12-18T15:08:01;-4.99;86.14
70271;SHT31;57680;54.292;18.598;2022-12-18T15:10:34;-5.08;86.59
70271;SHT31;57680;54.292;18.598;2022-12-18T15:20:57;-5.37;87.57
70271;SHT31;57680;54.292;18.598;2022-12-18T15:23:46;-5.45;87.68
70271;SHT31;57680;54.292;18.598;2022-12-18T15:26:15;-5.50;88.05
70271;SHT31;57680;54.292;18.598;2022-12-18T15:28:47;-5.55;87.96
70271;SHT31;57680;54.292;18.598;2022-12-18T15:33:43;-5.52;87.78
70271;SHT31;57680;54.292;18.598;2022-12-18T15:36:15;-5.59;87.75
70271;SHT31;57680;54.292;18.598;2022-12-18T15:38:45;-5.66;87.83
70271;SHT31;57680;54.292;18.598;2022-12-18T15:41:13;-5.75;87.92
70271;SHT31;57680;54.292;18.598;2022-12-18T15:43:39;-5.85;88.08
70271;SHT31;57680;54.292;18.598;2022-12-18T15:46:12;-5.90;88.24
70271;SHT31;57680;54.292;18.598;2022-12-18T15:48:46;-5.97;88.78
70271;SHT31;57680;54.292;18.598;2022-12-18T15:51:22;-5.99;89.02
70271;SHT31;57680;54.292;18.598;2022-12-18T15:53:51;-6.02;89.35
70271;SHT31;57680;54.292;18.598;2022-12-18T15:56:18;-6.03;89.26
70271;SHT31;57680;54.292;18.598;2022-12-18T15:59:04;-6.09;89.38
70271;SHT31;57680;54.292;18.598;2022-12-18T16:01:34;-6.14;89.47
70271;SHT31;57680;54.292;18.598;2022-12-18T16:03:59;-6.17;89.60
70271;SHT31;57680;54.292;18.598;2022-12-18T16:06:25;-6.21;89.63
70271;SHT31;57680;54.292;18.598;2022-12-18T16:08:50;-6.23;89.81
70271;SHT31;57680;54.292;18.598;2022-12-18T16:11:30;-6.26;90.12
70271;SHT31;57680;54.292;18.598;2022-12-18T16:14:19;-6.30;90.18
70271;SHT31;57680;54.292;18.598;2022-12-18T16:16:47;-6.26;90.69
70271;SHT31;57680;54.292;18.598;2022-12-18T16:19:13;-6.17;90.29
70271;SHT31;57680;54.292;18.598;2022-12-18T16:21:38;-6.17;89.95
70271;SHT31;57680;54.292;18.598;2022-12-18T16:24:04;-6.13;89.87
70271;SHT31;57680;54.292;18.598;2022-12-18T16:26:31;-6.16;89.18
70271;SHT31;57680;54.292;18.598;2022-12-18T16:28:56;-6.19;89.17
70271;SHT31;57680;54.292;18.598;2022-12-18T16:31:22;-6.21;89.14
70271;SHT31;57680;54.292;18.598;2022-12-18T16:33:47;-6.24;88.98
70271;SHT31;57680;54.292;18.598;2022-12-18T16:36:13;-6.27;89.04
70271;SHT31;57680;54.292;18.598;2022-12-18T16:38:38;-6.27;89.31
70271;SHT31;57680;54.292;18.598;2022-12-18T16:41:18;-6.28;89.14
70271;SHT31;57680;54.292;18.598;2022-12-18T16:43:56;-6.28;89.32
70271;SHT31;57680;54.292;18.598;2022-12-18T16:46:21;-6.28;88.85
70271;SHT31;57680;54.292;18.598;2022-12-18T16:48:47;-6.30;88.86
70271;SHT31;57680;54.292;18.598;2022-12-18T16:51:12;-6.34;88.89
70271;SHT31;57680;54.292;18.598;2022-12-18T16:53:37;-6.36;88.89
70271;SHT31;57680;54.292;18.598;2022-12-18T16:56:03;-6.40;88.88
70271;SHT31;57680;54.292;18.598;2022-12-18T16:58:28;-6.42;88.85
70271;SHT31;57680;54.292;18.598;2022-12-18T17:00:54;-6.51;88.71
70271;SHT31;57680;54.292;18.598;2022-12-18T17:03:20;-6.57;88.80
70271;SHT31;57680;54.292;18.598;2022-12-18T17:05:45;-6.61;88.88
70271;SHT31;57680;54.292;18.598;2022-12-18T17:08:11;-6.62;88.94
70271;SHT31;57680;54.292;18.598;2022-12-18T17:10:36;-6.60;88.74
70271;SHT31;57680;54.292;18.598;2022-12-18T17:13:01;-6.68;88.71
70271;SHT31;57680;54.292;18.598;2022-12-18T17:15:27;-6.67;88.68
70271;SHT31;57680;54.292;18.598;2022-12-18T17:17:52;-6.65;88.61
70271;SHT31;57680;54.292;18.598;2022-12-18T17:20:18;-6.72;88.57
70271;SHT31;57680;54.292;18.598;2022-12-18T17:22:43;-6.75;88.49
70271;SHT31;57680;54.292;18.598;2022-12-18T17:25:09;-6.75;88.29
70271;SHT31;57680;54.292;18.598;2022-12-18T17:27:34;-6.81;88.40
70271;SHT31;57680;54.292;18.598;2022-12-18T17:30:00;-6.85;88.33
70271;SHT31;57680;54.292;18.598;2022-12-18T17:32:26;-6.93;88.36
70271;SHT31;57680;54.292;18.598;2022-12-18T17:34:52;-7.02;88.59
70271;SHT31;57680;54.292;18.598;2022-12-18T17:37:17;-7.12;88.79
70271;SHT31;57680;54.292;18.598;2022-12-18T17:39:42;-7.22;88.90
70271;SHT31;57680;54.292;18.598;2022-12-18T17:42:08;-7.24;89.18
70271;SHT31;57680;54.292;18.598;2022-12-18T17:44:35;-7.33;89.30
70271;SHT31;57680;54.292;18.598;2022-12-18T17:47:00;-7.36;89.48
70271;SHT31;57680;54.292;18.598;2022-12-18T17:49:26;-7.43;89.73